sensor_id;sensor_type;location;lat;lon;timestamp;P1;durP1;ratioP1;P2;durP2;ratioP2
39018;SDS011;24786;51.984;5.872;2022-09-02T00:01:24;2.10;;;0.80;;
39018;SDS011;24786;51.984;5.872;2022-09-02T00:04:01;0.95;;;0.95;;
39018;SDS011;24786;51.984;5.872;2022-09-02T00:06:30;1.55;;;0.60;;
39018;SDS011;24786;51.984;5.872;2022-09-02T00:08:57;0.50;;;0.50;;
39018;SDS011;24786;51.984;5.872;2022-09-02T00:11:24;0.47;;;0.47;;
39018;SDS011;24786;51.984;5.872;2022-09-02T00:13:52;1.27;;;0.60;;
39018;SDS011;24786;51.984;5.872;2022-09-02T00:16:18;2.13;;;0.60;;
39018;SDS011;24786;51.984;5.872;2022-09-02T00:18:44;0.70;;;0.70;;
39018;SDS011;24786;51.984;5.872;2022-09-02T00:21:11;1.88;;;0.73;;
39018;SDS011;24786;51.984;5.872;2022-09-02T00:23:39;1.02;;;0.80;;
39018;SDS011;24786;51.984;5.872;2022-09-02T00:26:05;1.58;;;0.70;;
39018;SDS011;24786;51.984;5.872;2022-09-02T00:28:31;0.30;;;0.30;;
39018;SDS011;24786;51.984;5.872;2022-09-02T00:30:57;2.08;;;0.90;;
39018;SDS011;24786;51.984;5.872;2022-09-02T00:33:23;0.80;;;0.80;;
39018;SDS011;24786;51.984;5.872;2022-09-02T00:35:48;1.63;;;0.90;;
39018;SDS011;24786;51.984;5.872;2022-09-02T00:38:14;3.53;;;0.80;;
39018;SDS011;24786;51.984;5.872;2022-09-02T00:40:47;0.65;;;0.65;;
39018;SDS011;24786;51.984;5.872;2022-09-02T00:43:37;2.40;;;0.70;;
39018;SDS011;24786;51.984;5.872;2022-09-02T00:46:03;0.50;;;0.50;;
39018;SDS011;24786;51.984;5.872;2022-09-02T00:48:29;1.48;;;0.70;;
39018;SDS011;24786;51.984;5.872;2022-09-02T00:50:56;1.40;;;0.75;;
39018;SDS011;24786;51.984;5.872;2022-09-02T00:53:22;0.88;;;0.88;;
39018;SDS011;24786;51.984;5.872;2022-09-02T00:55:49;0.82;;;0.75;;
39018;SDS011;24786;51.984;5.872;2022-09-02T00:58:20;1.60;;;0.95;;
39018;SDS011;24786;51.984;5.872;2022-09-02T01:00:49;2.65;;;0.80;;
39018;SDS011;24786;51.984;5.872;2022-09-02T01:03:20;2.33;;;0.77;;
39018;SDS011;24786;51.984;5.872;2022-09-02T01:05:47;0.70;;;0.70;;
39018;SDS011;24786;51.984;5.872;2022-09-02T01:08:15;1.58;;;0.60;;
39018;SDS011;24786;51.984;5.872;2022-09-02T01:10:43;0.85;;;0.77;;
39018;SDS011;24786;51.984;5.872;2022-09-02T01:13:12;0.60;;;0.60;;
39018;SDS011;24786;51.984;5.872;2022-09-02T01:15:43;0.70;;;0.50;;
39018;SDS011;24786;51.984;5.872;2022-09-02T01:18:18;0.68;;;0.68;;
39018;SDS011;24786;51.984;5.872;2022-09-02T01:20:46;1.70;;;0.98;;
39018;SDS011;24786;51.984;5.872;2022-09-02T01:23:12;0.80;;;0.73;;
39018;SDS011;24786;51.984;5.872;2022-09-02T01:25:40;3.33;;;0.77;;
39018;SDS011;24786;51.984;5.872;2022-09-02T01:28:08;1.10;;;0.70;;
39018;SDS011;24786;51.984;5.872;2022-09-02T01:30:36;2.28;;;0.80;;
39018;SDS011;24786;51.984;5.872;2022-09-02T01:33:06;1.02;;;0.93;;
39018;SDS011;24786;51.984;5.872;2022-09-02T01:35:31;3.60;;;0.80;;
39018;SDS011;24786;51.984;5.872;2022-09-02T01:37:57;0.68;;;0.65;;
39018;SDS011;24786;51.984;5.872;2022-09-02T01:40:24;1.23;;;0.70;;
39018;SDS011;24786;51.984;5.872;2022-09-02T01:43:03;3.85;;;1.08;;
39018;SDS011;24786;51.984;5.872;2022-09-02T01:45:37;1.55;;;1.00;;
39018;SDS011;24786;51.984;5.872;2022-09-02T01:48:04;2.00;;;0.90;;
39018;SDS011;24786;51.984;5.872;2022-09-02T01:50:31;0.52;;;0.50;;
39018;SDS011;24786;51.984;5.872;2022-09-02T01:52:58;1.77;;;0.68;;
39018;SDS011;24786;51.984;5.872;2022-09-02T01:55:27;1.88;;;0.60;;
39018;SDS011;24786;51.984;5.872;2022-09-02T01:57:53;0.68;;;0.60;;
39018;SDS011;24786;51.984;5.872;2022-09-02T02:00:19;1.05;;;0.80;;
39018;SDS011;24786;51.984;5.872;2022-09-02T02:02:45;0.93;;;0.80;;
39018;SDS011;24786;51.984;5.872;2022-09-02T02:05:11;1.00;;;0.70;;
39018;SDS011;24786;51.984;5.872;2022-09-02T02:07:38;0.93;;;0.75;;
39018;SDS011;24786;51.984;5.872;2022-09-02T02:10:04;1.00;;;0.63;;
39018;SDS011;24786;51.984;5.872;2022-09-02T02:12:32;2.10;;;0.77;;
39018;SDS011;24786;51.984;5.872;2022-09-02T02:14:59;5.57;;;0.80;;
39018;SDS011;24786;51.984;5.872;2022-09-02T02:17:26;0.60;;;0.60;;
39018;SDS011;24786;51.984;5.872;2022-09-02T02:19:52;0.70;;;0.70;;
39018;SDS011;24786;51.984;5.872;2022-09-02T02:22:17;0.70;;;0.70;;
39018;SDS011;24786;51.984;5.872;2022-09-02T02:24:43;0.70;;;0.70;;
39018;SDS011;24786;51.984;5.872;2022-09-02T02:27:08;1.10;;;0.65;;
39018;SDS011;24786;51.984;5.872;2022-09-02T02:29:34;5.63;;;0.63;;
39018;SDS011;24786;51.984;5.872;2022-09-02T02:31:59;0.63;;;0.63;;
39018;SDS011;24786;51.984;5.872;2022-09-02T02:34:25;1.98;;;0.70;;
39018;SDS011;24786;51.984;5.872;2022-09-02T02:36:51;0.40;;;0.40;;
39018;SDS011;24786;51.984;5.872;2022-09-02T02:39:18;1.52;;;0.70;;
39018;SDS011;24786;51.984;5.872;2022-09-02T02:41:43;0.45;;;0.45;;
39018;SDS011;24786;51.984;5.872;2022-09-02T02:44:10;0.60;;;0.60;;
39018;SDS011;24786;51.984;5.872;2022-09-02T02:46:36;1.85;;;0.80;;
39018;SDS011;24786;51.984;5.872;2022-09-02T02:49:02;0.70;;;0.70;;
39018;SDS011;24786;51.984;5.872;2022-09-02T02:51:29;0.95;;;0.70;;
39018;SDS011;24786;51.984;5.872;2022-09-02T02:53:55;2.00;;;0.65;;
39018;SDS011;24786;51.984;5.872;2022-09-02T02:56:21;0.73;;;0.73;;
39018;SDS011;24786;51.984;5.872;2022-09-02T02:58:46;1.60;;;0.70;;
39018;SDS011;24786;51.984;5.872;2022-09-02T03:01:12;0.73;;;0.73;;
39018;SDS011;24786;51.984;5.872;2022-09-02T03:03:38;2.28;;;0.52;;
39018;SDS011;24786;51.984;5.872;2022-09-02T03:06:03;0.77;;;0.77;;
39018;SDS011;24786;51.984;5.872;2022-09-02T03:08:29;0.85;;;0.85;;
39018;SDS011;24786;51.984;5.872;2022-09-02T03:10:56;0.55;;;0.55;;
39018;SDS011;24786;51.984;5.872;2022-09-02T03:13:22;3.42;;;0.80;;
39018;SDS011;24786;51.984;5.872;2022-09-02T03:15:49;2.70;;;0.80;;
39018;SDS011;24786;51.984;5.872;2022-09-02T03:18:15;0.80;;;0.80;;
39018;SDS011;24786;51.984;5.872;2022-09-02T03:20:41;0.90;;;0.90;;
39018;SDS011;24786;51.984;5.872;2022-09-02T03:23:07;0.77;;;0.75;;
39018;SDS011;24786;51.984;5.872;2022-09-02T03:25:33;1.50;;;1.25;;
39018;SDS011;24786;51.984;5.872;2022-09-02T03:27:59;2.55;;;0.60;;
39018;SDS011;24786;51.984;5.872;2022-09-02T03:30:26;0.88;;;0.63;;
39018;SDS011;24786;51.984;5.872;2022-09-02T03:32:54;0.88;;;0.80;;
39018;SDS011;24786;51.984;5.872;2022-09-02T03:35:22;0.77;;;0.77;;
39018;SDS011;24786;51.984;5.872;2022-09-02T03:37:49;0.70;;;0.70;;
39018;SDS011;24786;51.984;5.872;2022-09-02T03:40:17;2.22;;;0.90;;
39018;SDS011;24786;51.984;5.872;2022-09-02T03:42:45;0.80;;;0.77;;
39018;SDS011;24786;51.984;5.872;2022-09-02T03:45:11;3.83;;;1.05;;
39018;SDS011;24786;51.984;5.872;2022-09-02T03:47:40;0.90;;;0.90;;
39018;SDS011;24786;51.984;5.872;2022-09-02T03:50:14;0.73;;;0.73;;
39018;SDS011;24786;51.984;5.872;2022-09-02T03:52:45;1.00;;;0.90;;
39018;SDS011;24786;51.984;5.872;2022-09-02T03:55:11;0.85;;;0.85;;
39018;SDS011;24786;51.984;5.872;2022-09-02T03:57:36;0.70;;;0.70;;
39018;SDS011;24786;51.984;5.872;2022-09-02T04:00:05;0.65;;;0.65;;
39018;SDS011;24786;51.984;5.872;2022-09-02T04:02:37;0.55;;;0.55;;
39018;SDS011;24786;51.984;5.872;2022-09-02T04:05:03;0.88;;;0.70;;
39018;SDS011;24786;51.984;5.872;2022-09-02T04:07:29;0.75;;;0.75;;
39018;SDS011;24786;51.984;5.872;2022-09-02T04:09:55;0.80;;;0.80;;
39018;SDS011;24786;51.984;5.872;2022-09-02T04:12:21;0.60;;;0.60;;
39018;SDS011;24786;51.984;5.872;2022-09-02T04:14:47;2.67;;;0.77;;
39018;SDS011;24786;51.984;5.872;2022-09-02T04:17:13;0.88;;;0.75;;
39018;SDS011;24786;51.984;5.872;2022-09-02T04:19:39;1.83;;;0.95;;
39018;SDS011;24786;51.984;5.872;2022-09-02T04:22:05;1.52;;;0.80;;
39018;SDS011;24786;51.984;5.872;2022-09-02T04:24:31;1.02;;;0.93;;
39018;SDS011;24786;51.984;5.872;2022-09-02T04:26:57;2.83;;;1.00;;
39018;SDS011;24786;51.984;5.872;2022-09-02T04:29:23;1.27;;;0.63;;
39018;SDS011;24786;51.984;5.872;2022-09-02T04:31:50;1.08;;;0.80;;
39018;SDS011;24786;51.984;5.872;2022-09-02T04:34:16;1.83;;;0.90;;
39018;SDS011;24786;51.984;5.872;2022-09-02T04:36:42;3.63;;;1.10;;
39018;SDS011;24786;51.984;5.872;2022-09-02T04:39:07;2.85;;;1.00;;
39018;SDS011;24786;51.984;5.872;2022-09-02T04:41:34;1.77;;;0.90;;
39018;SDS011;24786;51.984;5.872;2022-09-02T04:44:00;0.73;;;0.70;;
39018;SDS011;24786;51.984;5.872;2022-09-02T04:46:26;0.80;;;0.80;;
39018;SDS011;24786;51.984;5.872;2022-09-02T04:48:52;0.70;;;0.70;;
39018;SDS011;24786;51.984;5.872;2022-09-02T04:51:19;0.80;;;0.80;;
39018;SDS011;24786;51.984;5.872;2022-09-02T04:53:48;1.10;;;0.80;;
39018;SDS011;24786;51.984;5.872;2022-09-02T04:56:16;0.80;;;0.80;;
39018;SDS011;24786;51.984;5.872;2022-09-02T04:58:44;0.90;;;0.80;;
39018;SDS011;24786;51.984;5.872;2022-09-02T05:01:11;0.90;;;0.90;;
39018;SDS011;24786;51.984;5.872;2022-09-02T05:03:39;1.75;;;1.10;;
39018;SDS011;24786;51.984;5.872;2022-09-02T05:06:06;1.25;;;0.73;;
39018;SDS011;24786;51.984;5.872;2022-09-02T05:08:33;2.17;;;1.02;;
39018;SDS011;24786;51.984;5.872;2022-09-02T05:11:06;2.45;;;0.93;;
39018;SDS011;24786;51.984;5.872;2022-09-02T05:13:32;2.88;;;1.10;;
39018;SDS011;24786;51.984;5.872;2022-09-02T05:15:59;3.05;;;1.30;;
39018;SDS011;24786;51.984;5.872;2022-09-02T05:18:25;2.08;;;0.88;;
39018;SDS011;24786;51.984;5.872;2022-09-02T05:20:53;0.88;;;0.65;;
39018;SDS011;24786;51.984;5.872;2022-09-02T05:23:19;1.07;;;1.00;;
39018;SDS011;24786;51.984;5.872;2022-09-02T05:25:45;1.13;;;0.80;;
39018;SDS011;24786;51.984;5.872;2022-09-02T05:28:10;1.08;;;0.98;;
39018;SDS011;24786;51.984;5.872;2022-09-02T05:30:37;1.38;;;0.90;;
39018;SDS011;24786;51.984;5.872;2022-09-02T05:33:04;0.68;;;0.68;;
39018;SDS011;24786;51.984;5.872;2022-09-02T05:35:30;1.05;;;0.80;;
39018;SDS011;24786;51.984;5.872;2022-09-02T05:37:56;0.90;;;0.80;;
39018;SDS011;24786;51.984;5.872;2022-09-02T05:40:22;1.10;;;0.65;;
39018;SDS011;24786;51.984;5.872;2022-09-02T05:42:48;2.58;;;1.23;;
39018;SDS011;24786;51.984;5.872;2022-09-02T05:45:13;3.03;;;1.05;;
39018;SDS011;24786;51.984;5.872;2022-09-02T05:47:39;1.75;;;0.88;;
39018;SDS011;24786;51.984;5.872;2022-09-02T05:50:05;5.63;;;0.98;;
39018;SDS011;24786;51.984;5.872;2022-09-02T05:52:31;1.33;;;0.90;;
39018;SDS011;24786;51.984;5.872;2022-09-02T05:54:57;3.70;;;0.80;;
39018;SDS011;24786;51.984;5.872;2022-09-02T05:57:24;1.05;;;0.95;;
39018;SDS011;24786;51.984;5.872;2022-09-02T05:59:50;1.10;;;1.00;;
39018;SDS011;24786;51.984;5.872;2022-09-02T06:02:20;1.25;;;1.15;;
39018;SDS011;24786;51.984;5.872;2022-09-02T06:04:48;1.00;;;0.88;;
39018;SDS011;24786;51.984;5.872;2022-09-02T06:07:16;2.47;;;1.13;;
39018;SDS011;24786;51.984;5.872;2022-09-02T06:09:43;0.60;;;0.60;;
39018;SDS011;24786;51.984;5.872;2022-09-02T06:12:09;1.20;;;1.10;;
39018;SDS011;24786;51.984;5.872;2022-09-02T06:14:37;0.98;;;0.73;;
39018;SDS011;24786;51.984;5.872;2022-09-02T06:17:03;2.70;;;0.95;;
39018;SDS011;24786;51.984;5.872;2022-09-02T06:19:29;1.73;;;1.00;;
39018;SDS011;24786;51.984;5.872;2022-09-02T06:21:57;1.02;;;1.00;;
39018;SDS011;24786;51.984;5.872;2022-09-02T06:24:24;3.05;;;0.80;;
39018;SDS011;24786;51.984;5.872;2022-09-02T06:26:51;3.33;;;1.02;;
39018;SDS011;24786;51.984;5.872;2022-09-02T06:29:17;1.23;;;1.10;;
39018;SDS011;24786;51.984;5.872;2022-09-02T06:31:45;1.35;;;1.20;;
39018;SDS011;24786;51.984;5.872;2022-09-02T06:34:14;1.20;;;1.10;;
39018;SDS011;24786;51.984;5.872;2022-09-02T06:36:41;1.77;;;0.95;;
39018;SDS011;24786;51.984;5.872;2022-09-02T06:39:09;2.78;;;0.88;;
39018;SDS011;24786;51.984;5.872;2022-09-02T06:41:38;0.70;;;0.70;;
39018;SDS011;24786;51.984;5.872;2022-09-02T06:44:06;3.45;;;1.10;;
39018;SDS011;24786;51.984;5.872;2022-09-02T06:46:37;2.70;;;0.80;;
39018;SDS011;24786;51.984;5.872;2022-09-02T06:49:07;2.50;;;1.00;;
39018;SDS011;24786;51.984;5.872;2022-09-02T06:51:35;1.50;;;0.88;;
39018;SDS011;24786;51.984;5.872;2022-09-02T06:54:03;1.17;;;1.00;;
39018;SDS011;24786;51.984;5.872;2022-09-02T06:56:30;1.98;;;0.90;;
39018;SDS011;24786;51.984;5.872;2022-09-02T06:58:56;5.03;;;1.00;;
39018;SDS011;24786;51.984;5.872;2022-09-02T07:01:23;1.90;;;0.95;;
39018;SDS011;24786;51.984;5.872;2022-09-02T07:03:51;1.40;;;1.02;;
39018;SDS011;24786;51.984;5.872;2022-09-02T07:06:36;3.50;;;1.85;;
39018;SDS011;24786;51.984;5.872;2022-09-02T07:09:04;3.00;;;1.25;;
39018;SDS011;24786;51.984;5.872;2022-09-02T07:11:33;1.25;;;1.15;;
39018;SDS011;24786;51.984;5.872;2022-09-02T07:13:59;1.17;;;0.80;;
39018;SDS011;24786;51.984;5.872;2022-09-02T07:16:30;1.60;;;1.08;;
39018;SDS011;24786;51.984;5.872;2022-09-02T07:18:58;1.77;;;1.10;;
39018;SDS011;24786;51.984;5.872;2022-09-02T07:21:25;1.08;;;0.90;;
39018;SDS011;24786;51.984;5.872;2022-09-02T07:23:57;2.17;;;1.00;;
39018;SDS011;24786;51.984;5.872;2022-09-02T07:26:24;0.87;;;0.80;;
39018;SDS011;24786;51.984;5.872;2022-09-02T07:28:49;4.78;;;0.82;;
39018;SDS011;24786;51.984;5.872;2022-09-02T07:31:16;9.23;;;1.38;;
39018;SDS011;24786;51.984;5.872;2022-09-02T07:33:43;1.23;;;1.13;;
39018;SDS011;24786;51.984;5.872;2022-09-02T07:36:09;2.20;;;1.35;;
39018;SDS011;24786;51.984;5.872;2022-09-02T07:38:37;1.58;;;1.13;;
39018;SDS011;24786;51.984;5.872;2022-09-02T07:41:03;1.92;;;1.40;;
39018;SDS011;24786;51.984;5.872;2022-09-02T07:43:29;4.43;;;1.45;;
39018;SDS011;24786;51.984;5.872;2022-09-02T07:45:56;1.45;;;1.10;;
39018;SDS011;24786;51.984;5.872;2022-09-02T07:48:22;3.17;;;1.40;;
39018;SDS011;24786;51.984;5.872;2022-09-02T07:50:49;3.28;;;1.35;;
39018;SDS011;24786;51.984;5.872;2022-09-02T07:53:15;2.90;;;1.40;;
39018;SDS011;24786;51.984;5.872;2022-09-02T07:55:41;13.13;;;2.47;;
39018;SDS011;24786;51.984;5.872;2022-09-02T07:58:07;3.03;;;1.30;;
39018;SDS011;24786;51.984;5.872;2022-09-02T08:00:35;2.80;;;1.38;;
39018;SDS011;24786;51.984;5.872;2022-09-02T08:03:02;8.00;;;1.52;;
39018;SDS011;24786;51.984;5.872;2022-09-02T08:05:29;1.80;;;1.50;;
39018;SDS011;24786;51.984;5.872;2022-09-02T08:07:56;3.78;;;1.40;;
39018;SDS011;24786;51.984;5.872;2022-09-02T08:10:23;4.20;;;1.30;;
39018;SDS011;24786;51.984;5.872;2022-09-02T08:12:51;1.50;;;1.38;;
39018;SDS011;24786;51.984;5.872;2022-09-02T08:15:17;1.65;;;1.30;;
39018;SDS011;24786;51.984;5.872;2022-09-02T08:17:44;2.70;;;1.40;;
39018;SDS011;24786;51.984;5.872;2022-09-02T08:20:11;2.60;;;1.60;;
39018;SDS011;24786;51.984;5.872;2022-09-02T08:22:38;1.40;;;1.30;;
39018;SDS011;24786;51.984;5.872;2022-09-02T08:25:04;5.00;;;1.42;;
39018;SDS011;24786;51.984;5.872;2022-09-02T08:27:30;2.05;;;1.15;;
39018;SDS011;24786;51.984;5.872;2022-09-02T08:29:56;5.32;;;1.60;;
39018;SDS011;24786;51.984;5.872;2022-09-02T08:32:23;2.63;;;1.40;;
39018;SDS011;24786;51.984;5.872;2022-09-02T08:34:49;1.90;;;1.40;;
39018;SDS011;24786;51.984;5.872;2022-09-02T08:37:14;2.45;;;1.35;;
39018;SDS011;24786;51.984;5.872;2022-09-02T08:39:43;3.05;;;1.60;;
39018;SDS011;24786;51.984;5.872;2022-09-02T08:42:30;2.40;;;1.40;;
39018;SDS011;24786;51.984;5.872;2022-09-02T08:44:57;2.22;;;1.70;;
39018;SDS011;24786;51.984;5.872;2022-09-02T08:47:48;2.13;;;1.60;;
39018;SDS011;24786;51.984;5.872;2022-09-02T08:50:26;2.35;;;1.55;;
39018;SDS011;24786;51.984;5.872;2022-09-02T08:53:00;5.85;;;1.70;;
39018;SDS011;24786;51.984;5.872;2022-09-02T08:55:35;1.30;;;1.20;;
39018;SDS011;24786;51.984;5.872;2022-09-02T08:58:15;2.28;;;1.02;;
39018;SDS011;24786;51.984;5.872;2022-09-02T09:00:42;6.97;;;1.40;;
39018;SDS011;24786;51.984;5.872;2022-09-02T09:03:21;2.58;;;1.67;;
39018;SDS011;24786;51.984;5.872;2022-09-02T09:05:56;4.07;;;1.70;;
39018;SDS011;24786;51.984;5.872;2022-09-02T09:08:51;4.57;;;1.55;;
39018;SDS011;24786;51.984;5.872;2022-09-02T09:11:32;3.47;;;1.30;;
39018;SDS011;24786;51.984;5.872;2022-09-02T09:14:20;3.78;;;1.38;;
39018;SDS011;24786;51.984;5.872;2022-09-02T09:17:09;3.30;;;1.30;;
39018;SDS011;24786;51.984;5.872;2022-09-02T09:19:47;1.40;;;1.30;;
39018;SDS011;24786;51.984;5.872;2022-09-02T09:22:20;1.80;;;1.55;;
39018;SDS011;24786;51.984;5.872;2022-09-02T09:24:50;1.98;;;1.20;;
39018;SDS011;24786;51.984;5.872;2022-09-02T09:27:17;1.88;;;1.50;;
39018;SDS011;24786;51.984;5.872;2022-09-02T09:29:44;3.42;;;1.60;;
39018;SDS011;24786;51.984;5.872;2022-09-02T09:35:02;2.95;;;1.60;;
39018;SDS011;24786;51.984;5.872;2022-09-02T09:37:35;5.70;;;2.10;;
39018;SDS011;24786;51.984;5.872;2022-09-02T09:42:52;3.35;;;1.63;;
39018;SDS011;24786;51.984;5.872;2022-09-02T09:45:39;2.92;;;1.50;;
39018;SDS011;24786;51.984;5.872;2022-09-02T09:48:15;3.15;;;1.50;;
39018;SDS011;24786;51.984;5.872;2022-09-02T09:50:42;1.58;;;1.42;;
39018;SDS011;24786;51.984;5.872;2022-09-02T09:53:19;1.73;;;1.63;;
39018;SDS011;24786;51.984;5.872;2022-09-02T09:55:56;7.07;;;1.80;;
39018;SDS011;24786;51.984;5.872;2022-09-02T09:58:41;3.33;;;1.60;;
39018;SDS011;24786;51.984;5.872;2022-09-02T10:03:59;1.30;;;1.20;;
39018;SDS011;24786;51.984;5.872;2022-09-02T10:08:59;1.95;;;1.42;;
39018;SDS011;24786;51.984;5.872;2022-09-02T10:11:31;3.20;;;1.40;;
39018;SDS011;24786;51.984;5.872;2022-09-02T10:14:00;2.00;;;1.75;;
39018;SDS011;24786;51.984;5.872;2022-09-02T10:19:23;2.55;;;1.63;;
39018;SDS011;24786;51.984;5.872;2022-09-02T10:25:13;2.55;;;1.42;;
39018;SDS011;24786;51.984;5.872;2022-09-02T10:28:00;5.03;;;2.40;;
39018;SDS011;24786;51.984;5.872;2022-09-02T10:39:07;3.20;;;1.63;;
39018;SDS011;24786;51.984;5.872;2022-09-02T10:42:01;3.37;;;1.63;;
39018;SDS011;24786;51.984;5.872;2022-09-02T10:45:14;5.45;;;1.85;;
39018;SDS011;24786;51.984;5.872;2022-09-02T10:47:39;3.72;;;1.50;;
39018;SDS011;24786;51.984;5.872;2022-09-02T10:55:20;1.33;;;1.23;;
39018;SDS011;24786;51.984;5.872;2022-09-02T11:00:43;4.50;;;1.65;;
39018;SDS011;24786;51.984;5.872;2022-09-02T11:03:20;2.90;;;1.73;;
39018;SDS011;24786;51.984;5.872;2022-09-02T11:11:07;3.38;;;1.63;;
39018;SDS011;24786;51.984;5.872;2022-09-02T11:13:41;1.85;;;1.75;;
39018;SDS011;24786;51.984;5.872;2022-09-02T11:16:15;3.50;;;1.90;;
39018;SDS011;24786;51.984;5.872;2022-09-02T11:23:49;2.33;;;1.90;;
39018;SDS011;24786;51.984;5.872;2022-09-02T11:26:35;2.30;;;1.90;;
39018;SDS011;24786;51.984;5.872;2022-09-02T11:29:26;6.27;;;2.23;;
39018;SDS011;24786;51.984;5.872;2022-09-02T11:32:20;7.15;;;2.55;;
39018;SDS011;24786;51.984;5.872;2022-09-02T11:34:51;2.47;;;1.75;;
39018;SDS011;24786;51.984;5.872;2022-09-02T11:39:58;1.58;;;1.45;;
39018;SDS011;24786;51.984;5.872;2022-09-02T11:43:01;3.65;;;1.98;;
39018;SDS011;24786;51.984;5.872;2022-09-02T11:56:04;1.90;;;1.55;;
39018;SDS011;24786;51.984;5.872;2022-09-02T12:04:28;3.63;;;1.40;;
39018;SDS011;24786;51.984;5.872;2022-09-02T12:06:37;2.08;;;1.70;;
39018;SDS011;24786;51.984;5.872;2022-09-02T12:09:41;4.22;;;1.50;;
39018;SDS011;24786;51.984;5.872;2022-09-02T12:12:09;2.03;;;1.50;;
39018;SDS011;24786;51.984;5.872;2022-09-02T12:20:02;1.60;;;1.50;;
39018;SDS011;24786;51.984;5.872;2022-09-02T12:22:34;2.30;;;1.80;;
39018;SDS011;24786;51.984;5.872;2022-09-02T12:25:05;2.55;;;1.80;;
39018;SDS011;24786;51.984;5.872;2022-09-02T12:27:49;3.70;;;1.67;;
39018;SDS011;24786;51.984;5.872;2022-09-02T12:31:08;1.40;;;1.30;;
39018;SDS011;24786;51.984;5.872;2022-09-02T12:33:36;2.53;;;1.60;;
39018;SDS011;24786;51.984;5.872;2022-09-02T12:36:58;4.70;;;1.90;;
39018;SDS011;24786;51.984;5.872;2022-09-02T12:44:42;2.85;;;1.90;;
39018;SDS011;24786;51.984;5.872;2022-09-02T12:55:14;1.85;;;1.70;;
39018;SDS011;24786;51.984;5.872;2022-09-02T12:57:44;1.92;;;1.63;;
39018;SDS011;24786;51.984;5.872;2022-09-02T13:00:25;1.55;;;1.35;;
39018;SDS011;24786;51.984;5.872;2022-09-02T13:06:16;5.22;;;1.48;;
39018;SDS011;24786;51.984;5.872;2022-09-02T13:09:03;1.55;;;1.45;;
39018;SDS011;24786;51.984;5.872;2022-09-02T13:17:44;2.80;;;1.63;;
39018;SDS011;24786;51.984;5.872;2022-09-02T13:23:36;3.42;;;2.08;;
39018;SDS011;24786;51.984;5.872;2022-09-02T13:34:39;6.50;;;1.90;;
39018;SDS011;24786;51.984;5.872;2022-09-02T13:37:06;2.58;;;1.70;;
39018;SDS011;24786;51.984;5.872;2022-09-02T13:39:55;2.58;;;1.65;;
39018;SDS011;24786;51.984;5.872;2022-09-02T13:42:22;1.67;;;1.58;;
39018;SDS011;24786;51.984;5.872;2022-09-02T13:45:07;2.53;;;1.70;;
39018;SDS011;24786;51.984;5.872;2022-09-02T13:47:47;4.03;;;1.75;;
39018;SDS011;24786;51.984;5.872;2022-09-02T13:50:19;5.15;;;1.70;;
39018;SDS011;24786;51.984;5.872;2022-09-02T13:52:48;1.73;;;1.60;;
39018;SDS011;24786;51.984;5.872;2022-09-02T13:55:19;2.75;;;2.08;;
39018;SDS011;24786;51.984;5.872;2022-09-02T14:00:24;2.55;;;1.50;;
39018;SDS011;24786;51.984;5.872;2022-09-02T14:02:57;3.30;;;1.60;;
39018;SDS011;24786;51.984;5.872;2022-09-02T14:05:28;2.22;;;1.63;;
39018;SDS011;24786;51.984;5.872;2022-09-02T14:07:57;1.92;;;1.83;;
39018;SDS011;24786;51.984;5.872;2022-09-02T14:10:25;1.90;;;1.70;;
39018;SDS011;24786;51.984;5.872;2022-09-02T14:12:52;7.25;;;3.45;;
39018;SDS011;24786;51.984;5.872;2022-09-02T14:15:23;1.75;;;1.65;;
39018;SDS011;24786;51.984;5.872;2022-09-02T14:18:12;2.85;;;1.90;;
39018;SDS011;24786;51.984;5.872;2022-09-02T14:20:53;1.50;;;1.40;;
39018;SDS011;24786;51.984;5.872;2022-09-02T14:23:49;4.75;;;1.70;;
39018;SDS011;24786;51.984;5.872;2022-09-02T14:26:19;2.42;;;1.65;;
39018;SDS011;24786;51.984;5.872;2022-09-02T14:29:00;1.80;;;1.60;;
39018;SDS011;24786;51.984;5.872;2022-09-02T14:31:26;2.05;;;1.85;;
39018;SDS011;24786;51.984;5.872;2022-09-02T14:33:55;2.55;;;1.48;;
39018;SDS011;24786;51.984;5.872;2022-09-02T14:38:50;2.58;;;1.58;;
39018;SDS011;24786;51.984;5.872;2022-09-02T14:41:22;1.40;;;1.30;;
39018;SDS011;24786;51.984;5.872;2022-09-02T14:43:54;3.55;;;1.30;;
39018;SDS011;24786;51.984;5.872;2022-09-02T14:48:57;1.60;;;1.50;;
39018;SDS011;24786;51.984;5.872;2022-09-02T14:51:25;1.90;;;1.70;;
39018;SDS011;24786;51.984;5.872;2022-09-02T14:53:58;1.55;;;1.45;;
39018;SDS011;24786;51.984;5.872;2022-09-02T14:59:15;2.58;;;1.30;;
39018;SDS011;24786;51.984;5.872;2022-09-02T15:01:41;3.15;;;1.60;;
39018;SDS011;24786;51.984;5.872;2022-09-02T15:04:11;2.65;;;1.50;;
39018;SDS011;24786;51.984;5.872;2022-09-02T15:06:38;1.60;;;1.50;;
39018;SDS011;24786;51.984;5.872;2022-09-02T15:09:04;1.73;;;1.30;;
39018;SDS011;24786;51.984;5.872;2022-09-02T15:11:29;2.25;;;1.20;;
39018;SDS011;24786;51.984;5.872;2022-09-02T15:13:55;1.50;;;1.40;;
39018;SDS011;24786;51.984;5.872;2022-09-02T15:16:21;1.60;;;1.50;;
39018;SDS011;24786;51.984;5.872;2022-09-02T15:18:47;3.40;;;1.35;;
39018;SDS011;24786;51.984;5.872;2022-09-02T15:21:12;2.42;;;1.50;;
39018;SDS011;24786;51.984;5.872;2022-09-02T15:23:38;3.67;;;1.50;;
39018;SDS011;24786;51.984;5.872;2022-09-02T15:26:04;1.50;;;1.40;;
39018;SDS011;24786;51.984;5.872;2022-09-02T15:28:30;1.77;;;1.60;;
39018;SDS011;24786;51.984;5.872;2022-09-02T15:31:00;1.70;;;1.60;;
39018;SDS011;24786;51.984;5.872;2022-09-02T15:33:26;1.60;;;1.50;;
39018;SDS011;24786;51.984;5.872;2022-09-02T15:35:52;1.50;;;1.40;;
39018;SDS011;24786;51.984;5.872;2022-09-02T15:38:18;1.50;;;1.40;;
39018;SDS011;24786;51.984;5.872;2022-09-02T15:40:43;2.10;;;1.58;;
39018;SDS011;24786;51.984;5.872;2022-09-02T15:43:09;1.77;;;1.58;;
39018;SDS011;24786;51.984;5.872;2022-09-02T15:45:43;3.47;;;1.60;;
39018;SDS011;24786;51.984;5.872;2022-09-02T15:48:12;1.45;;;1.35;;
39018;SDS011;24786;51.984;5.872;2022-09-02T15:50:38;3.80;;;1.40;;
39018;SDS011;24786;51.984;5.872;2022-09-02T15:53:03;1.80;;;1.25;;
39018;SDS011;24786;51.984;5.872;2022-09-02T15:55:32;1.85;;;1.75;;
39018;SDS011;24786;51.984;5.872;2022-09-02T15:57:59;2.00;;;1.80;;
39018;SDS011;24786;51.984;5.872;2022-09-02T16:00:25;1.45;;;1.25;;
39018;SDS011;24786;51.984;5.872;2022-09-02T16:02:51;1.60;;;1.45;;
39018;SDS011;24786;51.984;5.872;2022-09-02T16:05:17;1.60;;;1.50;;
39018;SDS011;24786;51.984;5.872;2022-09-02T16:07:43;1.50;;;1.40;;
39018;SDS011;24786;51.984;5.872;2022-09-02T16:10:09;3.58;;;1.50;;
39018;SDS011;24786;51.984;5.872;2022-09-02T16:12:35;1.40;;;1.40;;
39018;SDS011;24786;51.984;5.872;2022-09-02T16:15:01;1.52;;;1.13;;
39018;SDS011;24786;51.984;5.872;2022-09-02T16:17:27;2.58;;;1.38;;
39018;SDS011;24786;51.984;5.872;2022-09-02T16:19:53;2.38;;;1.50;;
39018;SDS011;24786;51.984;5.872;2022-09-02T16:22:18;1.70;;;1.60;;
39018;SDS011;24786;51.984;5.872;2022-09-02T16:24:44;1.88;;;1.60;;
39018;SDS011;24786;51.984;5.872;2022-09-02T16:27:09;1.45;;;1.35;;
39018;SDS011;24786;51.984;5.872;2022-09-02T16:29:35;1.65;;;1.50;;
39018;SDS011;24786;51.984;5.872;2022-09-02T16:32:01;2.15;;;1.60;;
39018;SDS011;24786;51.984;5.872;2022-09-02T16:34:28;1.58;;;1.48;;
39018;SDS011;24786;51.984;5.872;2022-09-02T16:36:53;2.72;;;2.00;;
39018;SDS011;24786;51.984;5.872;2022-09-02T16:39:19;1.50;;;1.33;;
39018;SDS011;24786;51.984;5.872;2022-09-02T16:41:49;3.95;;;1.50;;
39018;SDS011;24786;51.984;5.872;2022-09-02T16:44:18;1.42;;;1.33;;
39018;SDS011;24786;51.984;5.872;2022-09-02T16:46:49;1.60;;;1.50;;
39018;SDS011;24786;51.984;5.872;2022-09-02T16:49:16;4.88;;;1.30;;
39018;SDS011;24786;51.984;5.872;2022-09-02T16:51:43;4.68;;;1.60;;
39018;SDS011;24786;51.984;5.872;2022-09-02T16:54:10;1.48;;;1.38;;
39018;SDS011;24786;51.984;5.872;2022-09-02T16:56:36;1.50;;;1.30;;